createdAt,value
2018-06-18T00:00:13.877Z,2.80
2018-06-18T00:02:41.479Z,2.83
2018-06-18T00:05:09.068Z,2.70
2018-06-18T00:07:36.672Z,3.30
2018-06-18T00:10:04.289Z,2.80
2018-06-18T00:12:31.899Z,2.87
2018-06-18T00:14:59.441Z,2.70
2018-06-18T00:17:27.057Z,3.70
2018-06-18T00:19:54.603Z,3.03
2018-06-18T00:22:24.199Z,2.97
2018-06-18T00:24:52.784Z,2.83
2018-06-18T00:27:23.349Z,3.60
2018-06-18T00:29:50.949Z,2.97
2018-06-18T00:32:18.509Z,2.70
2018-06-18T00:34:46.153Z,3.00
2018-06-18T00:37:13.865Z,2.63
2018-06-18T00:39:41.614Z,2.70
2018-06-18T00:42:09.180Z,3.10
2018-06-18T00:44:36.715Z,3.10
2018-06-18T00:47:04.176Z,3.13
2018-06-18T00:49:31.719Z,2.77
2018-06-18T00:51:59.410Z,2.80
2018-06-18T00:54:26.956Z,3.00
2018-06-18T00:56:54.608Z,2.80
2018-06-18T00:59:22.252Z,3.50
2018-06-18T01:01:49.791Z,4.57
2018-06-18T01:04:17.516Z,3.10
2018-06-18T01:06:45.177Z,3.03
2018-06-18T01:09:13.308Z,2.77
2018-06-18T01:11:41.761Z,4.10
2018-06-18T01:14:09.388Z,3.30
2018-06-18T01:16:36.991Z,3.23
2018-06-18T01:19:04.696Z,3.00
2018-06-18T01:21:35.652Z,3.43
2018-06-18T01:24:17.162Z,3.40
2018-06-18T01:26:44.756Z,3.40
2018-06-18T01:29:12.304Z,3.80
2018-06-18T01:31:39.875Z,2.83
2018-06-18T01:34:26.283Z,3.03
2018-06-18T01:36:54.039Z,3.00
2018-06-18T01:39:21.971Z,3.40
2018-06-18T01:41:49.931Z,3.33
2018-06-18T01:44:17.473Z,3.00
2018-06-18T01:46:45.064Z,2.73
2018-06-18T01:49:12.680Z,3.20
2018-06-18T01:51:40.238Z,2.90
2018-06-18T01:54:14.491Z,3.07
2018-06-18T01:56:42.060Z,3.00
2018-06-18T01:59:09.676Z,3.37
2018-06-18T02:01:37.249Z,2.77
2018-06-18T02:04:04.871Z,3.10
2018-06-18T02:06:32.426Z,2.87
2018-06-18T02:09:00.061Z,2.77
2018-06-18T02:11:27.794Z,3.27
2018-06-18T02:13:55.449Z,3.50
2018-06-18T02:16:23.069Z,3.00
2018-06-18T02:18:50.719Z,2.87
2018-06-18T02:21:19.654Z,3.40
2018-06-18T02:23:47.418Z,3.57
2018-06-18T02:26:15.022Z,3.87
2018-06-18T02:28:48.388Z,3.50
2018-06-18T02:31:21.706Z,3.37
2018-06-18T02:33:55.233Z,4.30
2018-06-18T02:36:28.775Z,3.57
2018-06-18T02:39:02.023Z,3.43
2018-06-18T02:41:29.640Z,2.90
2018-06-18T02:43:57.248Z,3.83
2018-06-18T02:46:24.916Z,3.80
2018-06-18T02:48:52.516Z,3.57
2018-06-18T02:51:20.105Z,3.80
2018-06-18T02:53:47.926Z,4.10
2018-06-18T02:56:16.354Z,3.37
2018-06-18T02:58:43.911Z,3.20
2018-06-18T03:01:11.499Z,3.00
2018-06-18T03:03:39.073Z,3.53
2018-06-18T03:06:06.873Z,3.03
2018-06-18T03:08:34.460Z,3.17
2018-06-18T03:11:01.992Z,3.73
2018-06-18T03:13:29.795Z,3.60
2018-06-18T03:15:57.375Z,3.90
2018-06-18T03:18:30.585Z,4.00
2018-06-18T03:21:03.775Z,3.80
2018-06-18T03:23:37.207Z,4.63
2018-06-18T03:26:10.737Z,4.77
2018-06-18T03:28:44.092Z,4.60
2018-06-18T03:31:11.615Z,4.70
2018-06-18T03:33:39.205Z,5.50
2018-06-18T03:36:07.452Z,4.90
2018-06-18T03:38:35.243Z,5.20
2018-06-18T03:41:02.803Z,5.10
2018-06-18T03:43:32.009Z,5.30
2018-06-18T03:45:59.588Z,5.10
2018-06-18T03:48:27.208Z,5.13
2018-06-18T03:50:54.824Z,4.53
2018-06-18T03:53:22.460Z,4.97
2018-06-18T03:55:54.493Z,5.10
2018-06-18T03:58:22.218Z,4.43
2018-06-18T04:01:48.307Z,4.80
2018-06-18T04:04:21.571Z,4.70
2018-06-18T04:06:54.748Z,4.70
2018-06-18T04:09:27.969Z,4.30
2018-06-18T04:12:01.245Z,5.13
2018-06-18T04:14:28.859Z,5.20
2018-06-18T04:16:56.469Z,5.30
2018-06-18T04:19:24.138Z,4.87
2018-06-18T04:21:51.820Z,4.60
2018-06-18T04:24:19.416Z,5.23
2018-06-18T04:26:46.993Z,5.00
2018-06-18T04:29:14.676Z,4.50
2018-06-18T04:31:42.284Z,4.67
2018-06-18T04:34:21.774Z,5.20
2018-06-18T04:36:49.341Z,4.80
2018-06-18T04:39:16.924Z,4.90
2018-06-18T04:42:49.919Z,4.50
2018-06-18T04:45:23.008Z,4.87
2018-06-18T04:47:56.290Z,4.67
2018-06-18T04:50:29.503Z,4.80
2018-06-18T04:52:57.040Z,4.80
2018-06-18T04:55:24.644Z,5.10
2018-06-18T04:57:52.291Z,4.57
2018-06-18T05:00:27.301Z,5.17
2018-06-18T05:02:54.896Z,4.90
2018-06-18T05:05:22.440Z,4.73
2018-06-18T05:07:58.363Z,4.73
2018-06-18T05:10:27.427Z,5.27
2018-06-18T05:12:55.013Z,4.90
2018-06-18T05:15:28.721Z,4.57
2018-06-18T05:17:56.641Z,5.17
2018-06-18T05:20:24.331Z,4.77
2018-06-18T05:22:51.903Z,4.77
2018-06-18T05:25:19.535Z,5.00
2018-06-18T05:27:47.122Z,5.30
2018-06-18T05:30:17.615Z,4.40
2018-06-18T05:32:45.909Z,4.87
2018-06-18T05:35:13.519Z,4.53
2018-06-18T05:37:44.811Z,4.70
2018-06-18T05:40:12.452Z,4.73
2018-06-18T05:42:40.060Z,4.90
2018-06-18T05:45:07.717Z,4.70
2018-06-18T05:47:35.508Z,4.83
2018-06-18T05:50:03.233Z,4.87
2018-06-18T05:52:31.886Z,4.80
2018-06-18T05:54:59.569Z,5.20
2018-06-18T05:57:28.060Z,4.90
2018-06-18T05:59:55.628Z,4.83
2018-06-18T06:02:23.259Z,5.23
2018-06-18T06:04:50.883Z,6.13
2018-06-18T06:07:18.628Z,5.03
2018-06-18T06:09:46.203Z,5.27
2018-06-18T06:12:13.795Z,5.20
2018-06-18T06:14:41.509Z,5.60
2018-06-18T06:17:09.152Z,5.47
2018-06-18T06:19:36.763Z,6.47
2018-06-18T06:22:04.798Z,5.47
2018-06-18T06:24:32.483Z,6.10
2018-06-18T06:27:00.125Z,7.33
2018-06-18T06:29:27.735Z,5.50
2018-06-18T06:31:55.472Z,6.70
2018-06-18T06:34:23.362Z,6.37
2018-06-18T06:36:50.988Z,5.63
2018-06-18T06:39:18.543Z,6.20
2018-06-18T06:41:54.466Z,5.53
2018-06-18T06:44:22.096Z,4.90
2018-06-18T06:46:49.761Z,5.20
2018-06-18T06:49:17.829Z,4.60
2018-06-18T06:51:45.616Z,5.07
2018-06-18T06:54:13.254Z,8.53
2018-06-18T06:56:40.852Z,18.77
2018-06-18T06:59:08.370Z,5.80
2018-06-18T07:01:35.961Z,4.17
2018-06-18T07:04:03.664Z,4.20
2018-06-18T07:06:40.729Z,5.07
2018-06-18T07:09:12.158Z,4.37
2018-06-18T07:11:40.140Z,3.43
2018-06-18T07:14:07.759Z,4.20
2018-06-18T07:16:35.555Z,4.00
2018-06-18T07:19:03.258Z,3.83
2018-06-18T07:21:30.859Z,3.83
2018-06-18T07:23:58.601Z,3.63
2018-06-18T07:26:26.281Z,3.60
2018-06-18T07:28:53.900Z,3.83
2018-06-18T07:31:22.156Z,3.67
2018-06-18T07:33:55.227Z,3.90
2018-06-18T07:36:24.140Z,3.43
2018-06-18T07:38:51.905Z,3.30
2018-06-18T07:41:19.577Z,3.40
2018-06-18T07:43:47.188Z,3.50
2018-06-18T07:46:14.835Z,3.50
2018-06-18T07:48:42.442Z,3.57
2018-06-18T07:51:10.041Z,4.00
2018-06-18T07:53:37.624Z,4.27
2018-06-18T07:56:05.339Z,3.90
2018-06-18T07:58:32.919Z,3.70
2018-06-18T08:01:00.573Z,3.77
2018-06-18T08:03:28.200Z,4.20
2018-06-18T08:05:55.913Z,2.97
2018-06-18T08:08:23.626Z,3.20
2018-06-18T08:10:51.257Z,3.53
2018-06-18T08:13:18.896Z,3.13
2018-06-18T08:15:46.492Z,3.03
2018-06-18T08:18:14.092Z,3.33
2018-06-18T08:20:41.664Z,3.40
2018-06-18T08:23:09.252Z,3.27
2018-06-18T08:25:43.550Z,2.87
2018-06-18T08:28:11.319Z,3.50
2018-06-18T08:30:38.956Z,3.33
2018-06-18T08:33:06.764Z,3.13
2018-06-18T08:35:34.574Z,2.90
2018-06-18T08:38:02.218Z,3.10
2018-06-18T08:40:29.844Z,3.13
2018-06-18T08:42:57.534Z,2.80
2018-06-18T08:45:25.150Z,2.63
2018-06-18T08:47:53.380Z,3.00
2018-06-18T08:50:26.688Z,3.23
2018-06-18T08:53:00.124Z,2.60
2018-06-18T08:55:33.434Z,3.07
2018-06-18T08:58:06.555Z,2.97
2018-06-18T09:00:39.668Z,2.97
2018-06-18T09:03:15.840Z,2.70
2018-06-18T09:05:53.571Z,2.60
2018-06-18T09:08:23.457Z,2.60
2018-06-18T09:10:51.975Z,2.90
2018-06-18T09:13:19.600Z,2.87
2018-06-18T09:15:47.392Z,2.60
2018-06-18T09:18:15.036Z,3.60
2018-06-18T09:20:42.696Z,3.07
2018-06-18T09:23:10.287Z,3.17
2018-06-18T09:25:46.383Z,3.27
2018-06-18T09:28:14.485Z,3.13
2018-06-18T09:30:42.093Z,3.10
2018-06-18T09:33:09.744Z,3.07
2018-06-18T09:35:37.401Z,3.37
2018-06-18T09:38:05.173Z,3.60
2018-06-18T09:40:32.793Z,2.77
2018-06-18T09:43:00.413Z,3.30
2018-06-18T09:45:28.102Z,3.10
2018-06-18T09:47:58.125Z,2.83
2018-06-18T09:50:31.645Z,2.57
2018-06-18T09:53:04.880Z,2.57
2018-06-18T09:55:38.399Z,2.50
2018-06-18T09:58:11.635Z,2.20
2018-06-18T10:00:53.192Z,2.40
2018-06-18T10:03:21.214Z,2.03
2018-06-18T10:05:49.079Z,2.53
2018-06-18T10:08:17.118Z,2.63
2018-06-18T10:10:45.107Z,2.57
2018-06-18T10:13:12.759Z,2.43
2018-06-18T10:15:40.433Z,2.50
2018-06-18T10:18:08.037Z,2.40
2018-06-18T10:20:35.749Z,2.40
2018-06-18T10:23:03.923Z,2.40
2018-06-18T10:25:32.047Z,2.20
2018-06-18T10:27:59.653Z,2.50
2018-06-18T10:30:27.308Z,2.40
2018-06-18T10:33:00.852Z,2.40
2018-06-18T10:35:34.039Z,1.97
2018-06-18T10:38:07.236Z,2.67
2018-06-18T10:40:40.644Z,2.30
2018-06-18T10:43:13.876Z,2.10
2018-06-18T10:45:41.559Z,2.50
2018-06-18T10:48:09.204Z,2.27
2018-06-18T10:50:36.760Z,2.10
2018-06-18T10:53:04.377Z,2.10
2018-06-18T10:55:32.082Z,2.33
2018-06-18T10:57:59.785Z,2.40
2018-06-18T11:00:28.104Z,2.17
2018-06-18T11:02:55.810Z,2.30
2018-06-18T11:05:32.025Z,2.67
2018-06-18T11:08:01.303Z,2.40
2018-06-18T11:10:28.990Z,2.43
2018-06-18T11:12:56.751Z,2.47
2018-06-18T11:15:24.401Z,2.43
2018-06-18T11:17:57.596Z,2.10
2018-06-18T11:20:30.694Z,2.40
2018-06-18T11:23:03.860Z,2.20
2018-06-18T11:25:37.252Z,2.37
2018-06-18T11:28:04.972Z,2.40
2018-06-18T11:30:33.344Z,2.10
2018-06-18T11:33:01.016Z,2.73
2018-06-18T11:35:29.097Z,2.50
2018-06-18T11:37:58.217Z,2.20
2018-06-18T11:40:26.825Z,2.20
2018-06-18T11:42:54.456Z,2.00
2018-06-18T11:45:22.916Z,2.33
2018-06-18T11:47:59.569Z,2.10
2018-06-18T11:50:27.227Z,2.53
2018-06-18T11:52:55.175Z,1.90
2018-06-18T11:55:22.776Z,2.60
2018-06-18T11:57:50.425Z,2.10
2018-06-18T12:00:23.562Z,2.10
2018-06-18T12:02:56.776Z,2.57
2018-06-18T12:05:30.122Z,2.60
2018-06-18T12:09:01.148Z,2.43
2018-06-18T12:11:28.711Z,2.90
2018-06-18T12:13:56.351Z,2.17
2018-06-18T12:16:23.953Z,2.20
2018-06-18T12:18:51.624Z,2.20
2018-06-18T12:21:19.310Z,2.50
2018-06-18T12:23:46.823Z,3.10
2018-06-18T12:26:14.502Z,2.47
2018-06-18T12:28:42.138Z,2.40
2018-06-18T12:31:10.559Z,2.37
2018-06-18T12:33:38.226Z,3.07
2018-06-18T12:36:07.389Z,2.20
2018-06-18T12:38:35.020Z,2.67
2018-06-18T12:41:03.050Z,1.90
2018-06-18T12:44:05.834Z,3.17
2018-06-18T12:46:39.451Z,2.80
2018-06-18T12:49:12.920Z,2.53
2018-06-18T12:51:45.981Z,2.50
2018-06-18T12:54:19.359Z,2.23
2018-06-18T12:56:52.614Z,2.53
2018-06-18T12:59:20.240Z,2.70
2018-06-18T13:02:02.185Z,2.50
2018-06-18T13:04:32.187Z,2.27
2018-06-18T13:06:59.798Z,2.00
2018-06-18T13:09:27.469Z,2.50
2018-06-18T13:11:55.071Z,2.60
2018-06-18T13:14:22.776Z,2.43
2018-06-18T13:16:54.822Z,2.60
2018-06-18T13:19:22.518Z,2.80
2018-06-18T13:21:50.155Z,2.70
2018-06-18T13:24:17.775Z,2.70
2018-06-18T13:26:45.417Z,3.10
2018-06-18T13:29:13.379Z,2.97
2018-06-18T13:31:41.088Z,2.70
2018-06-18T13:34:08.702Z,2.63
2018-06-18T13:36:36.238Z,2.97
2018-06-18T13:39:11.595Z,2.43
2018-06-18T13:41:44.987Z,2.93
2018-06-18T13:44:18.442Z,2.90
2018-06-18T13:46:51.628Z,2.80
2018-06-18T13:49:19.240Z,2.70
2018-06-18T13:51:46.852Z,2.67
2018-06-18T13:54:14.665Z,3.47
2018-06-18T13:56:42.259Z,3.00
2018-06-18T13:59:09.936Z,2.83
2018-06-18T14:01:37.569Z,2.63
2018-06-18T14:04:05.512Z,2.83
2018-06-18T14:06:33.355Z,3.17
2018-06-18T14:09:01.041Z,2.80
2018-06-18T14:11:28.647Z,3.20
2018-06-18T14:13:56.344Z,2.63
2018-06-18T14:16:23.958Z,2.80
2018-06-18T14:18:51.601Z,2.90
2018-06-18T14:21:19.240Z,2.70
2018-06-18T14:23:46.876Z,3.23
2018-06-18T14:26:14.560Z,3.53
2018-06-18T14:28:42.165Z,3.40
2018-06-18T14:31:15.601Z,3.00
2018-06-18T14:33:48.884Z,3.07
2018-06-18T14:36:22.209Z,2.97
2018-06-18T14:38:56.003Z,2.73
2018-06-18T14:41:23.649Z,2.97
2018-06-18T14:43:51.426Z,2.53
2018-06-18T14:46:19.040Z,2.83
2018-06-18T14:48:46.637Z,2.60
2018-06-18T14:51:14.330Z,2.43
2018-06-18T14:53:41.868Z,3.43
2018-06-18T14:56:14.989Z,2.73
2018-06-18T14:58:48.150Z,2.57
2018-06-18T15:01:16.044Z,2.13
2018-06-18T15:03:43.671Z,3.10
2018-06-18T15:06:11.261Z,2.27
2018-06-18T15:08:38.844Z,2.83
2018-06-18T15:11:06.473Z,2.57
2018-06-18T15:13:34.180Z,2.93
2018-06-18T15:16:08.068Z,2.40
2018-06-18T15:18:35.712Z,2.00
2018-06-18T15:21:03.927Z,2.77
2018-06-18T15:23:32.780Z,2.03
2018-06-18T15:26:00.614Z,2.07
2018-06-18T15:28:28.209Z,1.90
2018-06-18T15:30:55.779Z,1.97
2018-06-18T15:33:23.440Z,2.13
2018-06-18T15:35:51.070Z,2.30
2018-06-18T15:38:18.680Z,2.93
2018-06-18T15:40:46.294Z,2.33
2018-06-18T15:43:13.869Z,2.37
2018-06-18T15:45:41.388Z,2.63
2018-06-18T15:48:09.008Z,2.60
2018-06-18T15:50:36.647Z,2.47
2018-06-18T15:53:04.123Z,2.10
2018-06-18T15:55:32.300Z,2.73
2018-06-18T15:57:59.953Z,2.70
2018-06-18T16:00:27.648Z,2.40
2018-06-18T16:02:55.259Z,2.63
2018-06-18T16:05:22.910Z,2.00
2018-06-18T16:07:50.849Z,2.87
2018-06-18T16:10:18.447Z,2.00
2018-06-18T16:12:46.211Z,2.33
2018-06-18T16:15:13.811Z,2.07
2018-06-18T16:17:41.409Z,2.13
2018-06-18T16:20:08.990Z,2.23
2018-06-18T16:22:38.968Z,2.63
2018-06-18T16:25:06.618Z,11.50
2018-06-18T16:27:37.453Z,7.97
2018-06-18T16:32:39.658Z,12.37
2018-06-18T16:35:07.451Z,7.77
2018-06-18T16:37:37.488Z,7.93
2018-06-18T16:40:05.148Z,9.13
2018-06-18T16:42:32.919Z,3.03
2018-06-18T16:45:00.590Z,2.20
2018-06-18T16:47:28.169Z,2.07
2018-06-18T16:49:55.731Z,2.30
2018-06-18T16:52:23.587Z,2.53
2018-06-18T16:54:51.167Z,2.47
2018-06-18T16:57:18.821Z,2.03
2018-06-18T16:59:46.390Z,3.53
2018-06-18T17:02:14.004Z,2.50
2018-06-18T17:04:41.631Z,2.83
2018-06-18T17:07:09.346Z,2.23
2018-06-18T17:09:36.936Z,2.80
2018-06-18T17:12:04.650Z,2.73
2018-06-18T17:14:32.285Z,2.90
2018-06-18T17:16:59.925Z,2.90
2018-06-18T17:19:27.508Z,2.70
2018-06-18T17:21:55.190Z,3.10
2018-06-18T17:24:22.898Z,2.80
2018-06-18T17:26:50.522Z,3.77
2018-06-18T17:29:18.145Z,2.50
2018-06-18T17:31:45.807Z,4.00
2018-06-18T17:34:13.465Z,3.27
2018-06-18T17:36:41.211Z,4.00
2018-06-18T17:39:10.844Z,3.83
2018-06-18T17:41:38.779Z,3.57
2018-06-18T17:44:06.545Z,3.53
2018-06-18T17:46:34.297Z,3.13
2018-06-18T17:49:02.298Z,3.20
2018-06-18T17:51:30.066Z,3.43
2018-06-18T17:53:57.800Z,3.87
2018-06-18T17:56:25.581Z,3.67
2018-06-18T17:58:53.250Z,3.17
2018-06-18T18:01:20.981Z,3.80
2018-06-18T18:03:48.638Z,5.03
2018-06-18T18:06:16.308Z,4.00
2018-06-18T18:08:44.085Z,3.50
2018-06-18T18:11:12.171Z,3.67
2018-06-18T18:13:39.963Z,4.27
2018-06-18T18:16:07.623Z,3.63
2018-06-18T18:18:35.300Z,3.93
2018-06-18T18:21:02.956Z,3.10
2018-06-18T18:23:30.830Z,3.90
2018-06-18T18:25:58.608Z,3.53
2018-06-18T18:28:26.248Z,3.60
2018-06-18T18:30:54.063Z,3.30
2018-06-18T18:33:21.696Z,4.10
2018-06-18T18:35:49.427Z,3.90
2018-06-18T18:38:17.237Z,4.13
2018-06-18T18:40:44.851Z,3.80
2018-06-18T18:43:12.504Z,3.93
2018-06-18T18:45:40.176Z,3.30
2018-06-18T18:48:07.904Z,3.90
2018-06-18T18:50:38.389Z,3.40
2018-06-18T18:53:06.718Z,3.83
2018-06-18T18:55:47.726Z,4.20
2018-06-18T18:58:26.829Z,4.17
2018-06-18T19:00:54.543Z,3.77
2018-06-18T19:03:24.059Z,3.90
2018-06-18T19:05:53.136Z,4.40
2018-06-18T19:08:27.059Z,4.03
2018-06-18T19:10:55.341Z,3.40
2018-06-18T19:13:26.362Z,3.80
2018-06-18T19:15:54.966Z,3.50
2018-06-18T19:18:22.711Z,3.87
2018-06-18T19:20:57.271Z,3.70
2018-06-18T19:23:24.953Z,3.60
2018-06-18T19:25:52.620Z,4.17
2018-06-18T19:28:20.323Z,4.00
2018-06-18T19:30:50.720Z,4.37
2018-06-18T19:33:25.582Z,4.23
2018-06-18T19:35:53.206Z,4.30
2018-06-18T19:38:20.887Z,3.40
2018-06-18T19:40:48.568Z,3.87
2018-06-18T19:43:16.245Z,3.10
2018-06-18T19:45:48.519Z,4.03
2018-06-18T19:48:18.725Z,4.40
2018-06-18T19:50:46.538Z,3.63
2018-06-18T19:53:14.127Z,3.20
2018-06-18T19:55:41.820Z,3.40
2018-06-18T19:58:09.464Z,3.07
2018-06-18T20:00:48.896Z,2.80
2018-06-18T20:03:16.955Z,2.97
2018-06-18T20:05:45.417Z,3.33
2018-06-18T20:08:17.267Z,3.07
2018-06-18T20:10:44.947Z,6.37
2018-06-18T20:13:12.535Z,3.20
2018-06-18T20:15:40.199Z,2.83
2018-06-18T20:18:07.788Z,2.70
2018-06-18T20:20:35.392Z,2.73
2018-06-18T20:23:04.035Z,2.90
2018-06-18T20:25:49.929Z,2.70
2018-06-18T20:28:17.927Z,2.43
2018-06-18T20:30:45.547Z,2.90
2018-06-18T20:33:14.700Z,2.83
2018-06-18T20:35:48.454Z,2.80
2018-06-18T20:38:16.090Z,2.53
2018-06-18T20:40:43.725Z,2.63
2018-06-18T20:43:11.333Z,2.93
2018-06-18T20:45:38.929Z,2.80
2018-06-18T20:48:06.795Z,16.93
2018-06-18T20:50:34.495Z,17.83
2018-06-18T20:53:02.033Z,3.00
2018-06-18T20:55:29.760Z,2.97
2018-06-18T20:57:57.586Z,2.43
2018-06-18T21:00:25.320Z,2.70
2018-06-18T21:02:53.017Z,3.23
2018-06-18T21:05:20.676Z,2.87
2018-06-18T21:07:48.365Z,3.10
2018-06-18T21:10:15.959Z,3.70
2018-06-18T21:12:43.935Z,3.30
2018-06-18T21:15:11.719Z,2.77
2018-06-18T21:17:43.592Z,3.10
2018-06-18T21:20:12.173Z,2.87
2018-06-18T21:22:43.188Z,3.23
2018-06-18T21:25:10.788Z,2.90
2018-06-18T21:27:38.412Z,3.60
2018-06-18T21:30:06.835Z,3.43
2018-06-18T21:32:35.613Z,2.97
2018-06-18T21:35:07.660Z,2.83
2018-06-18T21:37:35.408Z,3.10
2018-06-18T21:40:03.261Z,3.00
2018-06-18T21:42:31.027Z,3.30
2018-06-18T21:45:06.244Z,3.30
2018-06-18T21:47:34.061Z,3.30
2018-06-18T21:50:01.693Z,3.33
2018-06-18T21:52:29.327Z,2.90
2018-06-18T21:54:57.004Z,3.60
2018-06-18T21:57:24.918Z,3.33
2018-06-18T21:59:52.442Z,3.17
2018-06-18T22:02:20.022Z,3.40
2018-06-18T22:04:47.633Z,2.93
2018-06-18T22:07:16.469Z,3.50
2018-06-18T22:09:44.149Z,3.07
2018-06-18T22:12:12.043Z,3.17
2018-06-18T22:14:39.723Z,3.67
2018-06-18T22:17:07.753Z,3.40
2018-06-18T22:19:35.428Z,3.43
2018-06-18T22:22:03.150Z,3.27
2018-06-18T22:24:30.790Z,3.37
2018-06-18T22:26:58.564Z,3.77
2018-06-18T22:29:26.162Z,3.87
2018-06-18T22:31:53.796Z,3.73
2018-06-18T22:34:21.485Z,4.17
2018-06-18T22:36:49.080Z,3.30
2018-06-18T22:39:16.738Z,3.33
2018-06-18T22:41:44.480Z,3.57
2018-06-18T22:44:12.171Z,3.60
2018-06-18T22:46:39.870Z,3.70
2018-06-18T22:49:07.504Z,3.30
2018-06-18T22:51:35.164Z,3.77
2018-06-18T22:54:02.799Z,4.03
2018-06-18T22:56:30.456Z,4.03
2018-06-18T22:58:58.163Z,4.27
2018-06-18T23:01:25.812Z,3.63
2018-06-18T23:03:53.598Z,3.40
2018-06-18T23:06:21.425Z,3.40
2018-06-18T23:08:49.241Z,3.47
2018-06-18T23:11:17.208Z,3.53
2018-06-18T23:13:44.860Z,3.50
2018-06-18T23:16:12.624Z,3.27
2018-06-18T23:18:40.297Z,3.33
2018-06-18T23:21:07.901Z,3.27
2018-06-18T23:23:35.552Z,3.57
2018-06-18T23:26:03.072Z,3.73
2018-06-18T23:28:37.856Z,3.60
2018-06-18T23:31:05.473Z,3.17
2018-06-18T23:33:33.123Z,3.60
2018-06-18T23:36:00.691Z,3.43
2018-06-18T23:38:28.312Z,3.60
2018-06-18T23:40:55.980Z,3.60
2018-06-18T23:43:23.734Z,3.30
2018-06-18T23:45:51.416Z,3.50
2018-06-18T23:48:19.340Z,4.00
2018-06-18T23:50:46.952Z,3.73
2018-06-18T23:53:14.579Z,3.30
2018-06-18T23:55:42.178Z,3.73
2018-06-18T23:58:10.408Z,3.97
